sensor_id;sensor_type;location;lat;lon;timestamp;temperature;humidity
12335;DHT22;6233;51.560;9.986;2022-12-07T00:02:22;2.20;99.90
12335;DHT22;6233;51.560;9.986;2022-12-07T00:05:25;2.20;99.90
12335;DHT22;6233;51.560;9.986;2022-12-07T00:08:27;2.20;99.90
12335;DHT22;6233;51.560;9.986;2022-12-07T00:11:29;2.20;99.90
12335;DHT22;6233;51.560;9.986;2022-12-07T00:14:30;2.10;99.90
12335;DHT22;6233;51.560;9.986;2022-12-07T00:17:32;2.10;99.90
12335;DHT22;6233;51.560;9.986;2022-12-07T00:20:35;2.10;99.90
12335;DHT22;6233;51.560;9.986;2022-12-07T00:23:37;2.10;99.90
12335;DHT22;6233;51.560;9.986;2022-12-07T00:26:39;2.20;99.90
12335;DHT22;6233;51.560;9.986;2022-12-07T00:29:41;2.10;99.90
12335;DHT22;6233;51.560;9.986;2022-12-07T00:32:43;2.10;99.90
12335;DHT22;6233;51.560;9.986;2022-12-07T00:35:45;2.20;99.90
12335;DHT22;6233;51.560;9.986;2022-12-07T00:38:47;2.10;99.90
12335;DHT22;6233;51.560;9.986;2022-12-07T00:42:14;2.20;99.90
12335;DHT22;6233;51.560;9.986;2022-12-07T00:45:16;2.20;99.90
12335;DHT22;6233;51.560;9.986;2022-12-07T00:48:17;2.20;99.90
12335;DHT22;6233;51.560;9.986;2022-12-07T00:51:21;2.20;99.90
12335;DHT22;6233;51.560;9.986;2022-12-07T00:54:23;2.20;99.90
12335;DHT22;6233;51.560;9.986;2022-12-07T00:57:24;2.20;99.90
12335;DHT22;6233;51.560;9.986;2022-12-07T01:00:26;2.10;99.90
12335;DHT22;6233;51.560;9.986;2022-12-07T01:03:28;2.10;99.90
12335;DHT22;6233;51.560;9.986;2022-12-07T01:06:31;2.10;99.90
12335;DHT22;6233;51.560;9.986;2022-12-07T01:09:33;2.10;99.90
12335;DHT22;6233;51.560;9.986;2022-12-07T01:12:34;2.10;99.90
12335;DHT22;6233;51.560;9.986;2022-12-07T01:15:42;2.10;99.90
12335;DHT22;6233;51.560;9.986;2022-12-07T01:18:47;2.10;99.90
12335;DHT22;6233;51.560;9.986;2022-12-07T01:21:52;2.10;99.90
12335;DHT22;6233;51.560;9.986;2022-12-07T01:24:54;2.10;99.90
12335;DHT22;6233;51.560;9.986;2022-12-07T01:27:55;2.10;99.90
12335;DHT22;6233;51.560;9.986;2022-12-07T01:31:03;2.10;99.90
12335;DHT22;6233;51.560;9.986;2022-12-07T01:34:05;2.20;99.90
12335;DHT22;6233;51.560;9.986;2022-12-07T01:37:07;2.20;99.90
12335;DHT22;6233;51.560;9.986;2022-12-07T01:40:10;2.20;99.90
12335;DHT22;6233;51.560;9.986;2022-12-07T01:43:17;2.20;99.90
12335;DHT22;6233;51.560;9.986;2022-12-07T01:46:19;2.20;99.90
12335;DHT22;6233;51.560;9.986;2022-12-07T01:49:33;2.20;99.90
12335;DHT22;6233;51.560;9.986;2022-12-07T01:52:38;2.20;99.90
12335;DHT22;6233;51.560;9.986;2022-12-07T01:55:43;2.20;99.90
12335;DHT22;6233;51.560;9.986;2022-12-07T01:58:45;2.20;99.90
12335;DHT22;6233;51.560;9.986;2022-12-07T02:01:47;2.20;99.90
12335;DHT22;6233;51.560;9.986;2022-12-07T02:04:51;2.20;99.90
12335;DHT22;6233;51.560;9.986;2022-12-07T02:07:55;2.20;99.90
12335;DHT22;6233;51.560;9.986;2022-12-07T02:10:58;2.20;99.90
12335;DHT22;6233;51.560;9.986;2022-12-07T02:14:00;2.30;99.90
12335;DHT22;6233;51.560;9.986;2022-12-07T02:17:25;2.30;99.90
12335;DHT22;6233;51.560;9.986;2022-12-07T02:21:10;2.20;99.90
12335;DHT22;6233;51.560;9.986;2022-12-07T02:27:56;2.20;99.90
12335;DHT22;6233;51.560;9.986;2022-12-07T02:31:12;2.30;99.90
12335;DHT22;6233;51.560;9.986;2022-12-07T02:40:55;2.30;99.90
12335;DHT22;6233;51.560;9.986;2022-12-07T02:44:02;2.30;99.90
12335;DHT22;6233;51.560;9.986;2022-12-07T02:47:08;2.30;99.90
12335;DHT22;6233;51.560;9.986;2022-12-07T02:50:11;2.30;99.90
12335;DHT22;6233;51.560;9.986;2022-12-07T02:53:37;2.30;99.90
12335;DHT22;6233;51.560;9.986;2022-12-07T03:00:07;2.30;99.90
12335;DHT22;6233;51.560;9.986;2022-12-07T03:03:13;2.30;99.90
12335;DHT22;6233;51.560;9.986;2022-12-07T03:06:20;2.40;99.90
12335;DHT22;6233;51.560;9.986;2022-12-07T03:09:34;2.40;99.90
12335;DHT22;6233;51.560;9.986;2022-12-07T03:12:43;2.40;99.90
12335;DHT22;6233;51.560;9.986;2022-12-07T03:16:12;2.40;99.90
12335;DHT22;6233;51.560;9.986;2022-12-07T03:19:18;2.40;99.90
12335;DHT22;6233;51.560;9.986;2022-12-07T03:22:21;2.40;99.90
12335;DHT22;6233;51.560;9.986;2022-12-07T03:25:25;2.40;99.90
12335;DHT22;6233;51.560;9.986;2022-12-07T03:28:34;2.40;99.90
12335;DHT22;6233;51.560;9.986;2022-12-07T03:31:41;2.40;99.90
12335;DHT22;6233;51.560;9.986;2022-12-07T03:35:00;2.50;99.90
12335;DHT22;6233;51.560;9.986;2022-12-07T03:41:36;2.50;99.90
12335;DHT22;6233;51.560;9.986;2022-12-07T03:44:45;2.50;99.90
12335;DHT22;6233;51.560;9.986;2022-12-07T03:47:53;2.50;99.90
12335;DHT22;6233;51.560;9.986;2022-12-07T03:54:19;2.50;99.90
12335;DHT22;6233;51.560;9.986;2022-12-07T03:57:24;2.60;99.90
12335;DHT22;6233;51.560;9.986;2022-12-07T04:00:26;2.60;99.90
12335;DHT22;6233;51.560;9.986;2022-12-07T04:03:28;2.60;99.90
12335;DHT22;6233;51.560;9.986;2022-12-07T04:06:30;2.60;99.90
12335;DHT22;6233;51.560;9.986;2022-12-07T04:09:32;2.60;99.90
12335;DHT22;6233;51.560;9.986;2022-12-07T04:12:33;2.60;99.90
12335;DHT22;6233;51.560;9.986;2022-12-07T04:15:35;2.60;99.90
12335;DHT22;6233;51.560;9.986;2022-12-07T04:18:37;2.60;99.90
12335;DHT22;6233;51.560;9.986;2022-12-07T04:21:39;2.70;99.90
12335;DHT22;6233;51.560;9.986;2022-12-07T04:24:40;2.70;99.90
12335;DHT22;6233;51.560;9.986;2022-12-07T04:27:42;2.70;99.90
12335;DHT22;6233;51.560;9.986;2022-12-07T04:30:45;2.70;99.90
12335;DHT22;6233;51.560;9.986;2022-12-07T04:33:47;2.70;99.90
12335;DHT22;6233;51.560;9.986;2022-12-07T04:36:49;2.70;99.90
12335;DHT22;6233;51.560;9.986;2022-12-07T04:39:51;2.70;99.90
12335;DHT22;6233;51.560;9.986;2022-12-07T04:42:52;2.70;99.90
12335;DHT22;6233;51.560;9.986;2022-12-07T04:45:54;2.80;99.90
12335;DHT22;6233;51.560;9.986;2022-12-07T04:49:08;2.80;99.90
12335;DHT22;6233;51.560;9.986;2022-12-07T04:52:10;2.80;99.90
12335;DHT22;6233;51.560;9.986;2022-12-07T04:55:12;2.80;99.90
12335;DHT22;6233;51.560;9.986;2022-12-07T04:58:14;2.80;99.90
12335;DHT22;6233;51.560;9.986;2022-12-07T05:01:16;2.80;99.90
12335;DHT22;6233;51.560;9.986;2022-12-07T05:04:18;2.80;99.90
12335;DHT22;6233;51.560;9.986;2022-12-07T05:07:20;2.80;99.90
12335;DHT22;6233;51.560;9.986;2022-12-07T05:10:21;2.80;99.90
12335;DHT22;6233;51.560;9.986;2022-12-07T05:13:23;2.80;99.90
12335;DHT22;6233;51.560;9.986;2022-12-07T05:16:25;2.80;99.90
12335;DHT22;6233;51.560;9.986;2022-12-07T05:19:27;2.80;99.90
12335;DHT22;6233;51.560;9.986;2022-12-07T05:22:28;2.90;99.90
12335;DHT22;6233;51.560;9.986;2022-12-07T05:25:30;2.90;99.90
12335;DHT22;6233;51.560;9.986;2022-12-07T05:28:32;2.90;99.90
12335;DHT22;6233;51.560;9.986;2022-12-07T05:31:34;2.90;99.90
12335;DHT22;6233;51.560;9.986;2022-12-07T05:34:36;2.80;99.90
12335;DHT22;6233;51.560;9.986;2022-12-07T05:37:37;2.90;99.90
12335;DHT22;6233;51.560;9.986;2022-12-07T05:40:39;2.90;99.90
12335;DHT22;6233;51.560;9.986;2022-12-07T05:43:41;2.90;99.90
12335;DHT22;6233;51.560;9.986;2022-12-07T05:46:43;2.90;99.90
12335;DHT22;6233;51.560;9.986;2022-12-07T05:49:44;2.90;99.90
12335;DHT22;6233;51.560;9.986;2022-12-07T05:52:46;2.90;99.90
12335;DHT22;6233;51.560;9.986;2022-12-07T05:55:48;2.90;99.90
12335;DHT22;6233;51.560;9.986;2022-12-07T05:58:49;2.90;99.90
12335;DHT22;6233;51.560;9.986;2022-12-07T06:02:12;2.90;99.90
12335;DHT22;6233;51.560;9.986;2022-12-07T06:05:14;2.90;99.90
12335;DHT22;6233;51.560;9.986;2022-12-07T06:08:16;3.00;99.90
12335;DHT22;6233;51.560;9.986;2022-12-07T06:11:17;3.00;99.90
12335;DHT22;6233;51.560;9.986;2022-12-07T06:14:38;3.00;99.90
12335;DHT22;6233;51.560;9.986;2022-12-07T06:17:40;2.90;99.90
12335;DHT22;6233;51.560;9.986;2022-12-07T06:20:42;3.00;99.90
12335;DHT22;6233;51.560;9.986;2022-12-07T06:23:43;3.00;99.90
12335;DHT22;6233;51.560;9.986;2022-12-07T06:26:45;3.00;99.90
12335;DHT22;6233;51.560;9.986;2022-12-07T06:29:47;3.00;99.90
12335;DHT22;6233;51.560;9.986;2022-12-07T06:32:49;3.00;99.90
12335;DHT22;6233;51.560;9.986;2022-12-07T06:35:50;3.00;99.90
12335;DHT22;6233;51.560;9.986;2022-12-07T06:38:53;3.00;99.90
12335;DHT22;6233;51.560;9.986;2022-12-07T06:41:55;3.00;99.90
12335;DHT22;6233;51.560;9.986;2022-12-07T06:44:56;3.00;99.90
12335;DHT22;6233;51.560;9.986;2022-12-07T06:48:04;3.00;99.90
12335;DHT22;6233;51.560;9.986;2022-12-07T06:51:06;3.00;99.90
12335;DHT22;6233;51.560;9.986;2022-12-07T06:54:12;3.00;99.90
12335;DHT22;6233;51.560;9.986;2022-12-07T06:57:14;3.00;99.90
12335;DHT22;6233;51.560;9.986;2022-12-07T07:00:15;3.00;99.90
12335;DHT22;6233;51.560;9.986;2022-12-07T07:03:23;3.00;99.90
12335;DHT22;6233;51.560;9.986;2022-12-07T07:06:25;3.00;99.90
12335;DHT22;6233;51.560;9.986;2022-12-07T07:09:27;3.00;99.90
12335;DHT22;6233;51.560;9.986;2022-12-07T07:12:29;3.00;99.90
12335;DHT22;6233;51.560;9.986;2022-12-07T07:15:31;3.00;99.90
12335;DHT22;6233;51.560;9.986;2022-12-07T07:18:33;3.00;99.90
12335;DHT22;6233;51.560;9.986;2022-12-07T07:21:35;3.00;99.90
12335;DHT22;6233;51.560;9.986;2022-12-07T07:24:37;3.00;99.90
12335;DHT22;6233;51.560;9.986;2022-12-07T07:27:39;3.00;99.90
12335;DHT22;6233;51.560;9.986;2022-12-07T07:30:41;3.10;99.90
12335;DHT22;6233;51.560;9.986;2022-12-07T07:33:45;3.00;99.90
12335;DHT22;6233;51.560;9.986;2022-12-07T07:36:48;3.00;99.90
12335;DHT22;6233;51.560;9.986;2022-12-07T07:39:49;3.00;99.90
12335;DHT22;6233;51.560;9.986;2022-12-07T07:42:52;2.90;99.90
12335;DHT22;6233;51.560;9.986;2022-12-07T07:45:54;2.90;99.90
12335;DHT22;6233;51.560;9.986;2022-12-07T07:48:56;3.00;99.90
12335;DHT22;6233;51.560;9.986;2022-12-07T07:51:58;3.00;99.90
12335;DHT22;6233;51.560;9.986;2022-12-07T07:54:59;3.00;99.90
12335;DHT22;6233;51.560;9.986;2022-12-07T07:58:11;3.00;99.90
12335;DHT22;6233;51.560;9.986;2022-12-07T08:01:13;3.00;99.90
12335;DHT22;6233;51.560;9.986;2022-12-07T08:04:16;3.00;99.90
12335;DHT22;6233;51.560;9.986;2022-12-07T08:07:20;3.10;99.90
12335;DHT22;6233;51.560;9.986;2022-12-07T08:10:21;3.00;99.90
12335;DHT22;6233;51.560;9.986;2022-12-07T08:13:23;3.00;99.90
12335;DHT22;6233;51.560;9.986;2022-12-07T08:16:31;3.00;99.90
12335;DHT22;6233;51.560;9.986;2022-12-07T08:19:33;3.00;99.90
12335;DHT22;6233;51.560;9.986;2022-12-07T08:22:34;3.00;99.90
12335;DHT22;6233;51.560;9.986;2022-12-07T08:25:36;3.10;99.90
12335;DHT22;6233;51.560;9.986;2022-12-07T08:28:40;3.10;99.90
12335;DHT22;6233;51.560;9.986;2022-12-07T08:31:41;3.10;99.90
12335;DHT22;6233;51.560;9.986;2022-12-07T08:34:43;3.10;99.90
12335;DHT22;6233;51.560;9.986;2022-12-07T08:37:46;3.10;99.90
12335;DHT22;6233;51.560;9.986;2022-12-07T08:40:54;3.10;99.90
12335;DHT22;6233;51.560;9.986;2022-12-07T08:43:57;3.10;99.90
12335;DHT22;6233;51.560;9.986;2022-12-07T08:47:01;3.10;99.90
12335;DHT22;6233;51.560;9.986;2022-12-07T08:50:06;3.10;99.90
12335;DHT22;6233;51.560;9.986;2022-12-07T08:53:08;3.10;99.90
12335;DHT22;6233;51.560;9.986;2022-12-07T08:56:10;3.20;99.90
12335;DHT22;6233;51.560;9.986;2022-12-07T08:59:15;3.10;99.90
12335;DHT22;6233;51.560;9.986;2022-12-07T09:02:17;3.20;99.90
12335;DHT22;6233;51.560;9.986;2022-12-07T09:05:18;3.10;99.90
12335;DHT22;6233;51.560;9.986;2022-12-07T09:08:22;3.10;99.90
12335;DHT22;6233;51.560;9.986;2022-12-07T09:11:24;3.10;99.90
12335;DHT22;6233;51.560;9.986;2022-12-07T09:14:29;3.10;99.90
12335;DHT22;6233;51.560;9.986;2022-12-07T09:17:34;3.10;99.90
12335;DHT22;6233;51.560;9.986;2022-12-07T09:20:37;3.10;99.90
12335;DHT22;6233;51.560;9.986;2022-12-07T09:23:38;3.10;99.90
12335;DHT22;6233;51.560;9.986;2022-12-07T09:26:40;3.10;99.90
12335;DHT22;6233;51.560;9.986;2022-12-07T09:29:42;3.20;99.90
12335;DHT22;6233;51.560;9.986;2022-12-07T09:32:43;3.20;99.90
12335;DHT22;6233;51.560;9.986;2022-12-07T09:35:47;3.20;99.90
12335;DHT22;6233;51.560;9.986;2022-12-07T09:38:49;3.20;99.90
12335;DHT22;6233;51.560;9.986;2022-12-07T09:41:51;3.30;99.90
12335;DHT22;6233;51.560;9.986;2022-12-07T09:44:55;3.30;99.90
12335;DHT22;6233;51.560;9.986;2022-12-07T09:47:57;3.40;99.90
12335;DHT22;6233;51.560;9.986;2022-12-07T09:51:00;3.40;99.90
12335;DHT22;6233;51.560;9.986;2022-12-07T09:54:02;3.40;99.90
12335;DHT22;6233;51.560;9.986;2022-12-07T09:57:08;3.40;99.90
12335;DHT22;6233;51.560;9.986;2022-12-07T10:00:16;3.40;99.90
12335;DHT22;6233;51.560;9.986;2022-12-07T10:03:18;3.40;99.90
12335;DHT22;6233;51.560;9.986;2022-12-07T10:06:21;3.40;99.90
12335;DHT22;6233;51.560;9.986;2022-12-07T10:09:22;3.40;99.90
12335;DHT22;6233;51.560;9.986;2022-12-07T10:12:26;3.40;99.90
12335;DHT22;6233;51.560;9.986;2022-12-07T10:18:45;3.50;99.90
12335;DHT22;6233;51.560;9.986;2022-12-07T10:22:10;3.50;99.90
12335;DHT22;6233;51.560;9.986;2022-12-07T10:25:20;3.50;99.90
12335;DHT22;6233;51.560;9.986;2022-12-07T10:28:22;3.50;99.90
12335;DHT22;6233;51.560;9.986;2022-12-07T10:31:24;3.50;99.90
12335;DHT22;6233;51.560;9.986;2022-12-07T10:34:34;3.50;99.90
12335;DHT22;6233;51.560;9.986;2022-12-07T10:37:43;3.50;99.90
12335;DHT22;6233;51.560;9.986;2022-12-07T10:40:47;3.50;99.90
12335;DHT22;6233;51.560;9.986;2022-12-07T10:43:54;3.50;99.90
12335;DHT22;6233;51.560;9.986;2022-12-07T10:47:25;3.50;99.90
12335;DHT22;6233;51.560;9.986;2022-12-07T10:54:15;3.50;99.90
12335;DHT22;6233;51.560;9.986;2022-12-07T10:57:45;3.50;99.90
12335;DHT22;6233;51.560;9.986;2022-12-07T11:04:33;3.50;99.90
12335;DHT22;6233;51.560;9.986;2022-12-07T11:07:58;3.50;99.90
12335;DHT22;6233;51.560;9.986;2022-12-07T11:15:52;3.40;99.90
12335;DHT22;6233;51.560;9.986;2022-12-07T11:18:27;3.50;99.90
12335;DHT22;6233;51.560;9.986;2022-12-07T11:25:23;3.40;99.90
12335;DHT22;6233;51.560;9.986;2022-12-07T11:28:37;3.40;99.90
12335;DHT22;6233;51.560;9.986;2022-12-07T11:38:47;3.50;99.90
12335;DHT22;6233;51.560;9.986;2022-12-07T11:41:56;3.60;99.90
12335;DHT22;6233;51.560;9.986;2022-12-07T11:45:18;3.60;99.90
12335;DHT22;6233;51.560;9.986;2022-12-07T11:48:33;3.60;99.90
12335;DHT22;6233;51.560;9.986;2022-12-07T11:51:38;3.70;99.90
12335;DHT22;6233;51.560;9.986;2022-12-07T11:54:43;3.70;99.90
12335;DHT22;6233;51.560;9.986;2022-12-07T11:57:57;3.70;99.90
12335;DHT22;6233;51.560;9.986;2022-12-07T12:08:46;3.60;99.90
12335;DHT22;6233;51.560;9.986;2022-12-07T12:12:31;3.70;99.90
12335;DHT22;6233;51.560;9.986;2022-12-07T12:23:07;3.70;99.90
12335;DHT22;6233;51.560;9.986;2022-12-07T12:26:33;3.60;99.90
12335;DHT22;6233;51.560;9.986;2022-12-07T12:29:39;3.60;99.90
12335;DHT22;6233;51.560;9.986;2022-12-07T12:32:42;3.60;99.90
12335;DHT22;6233;51.560;9.986;2022-12-07T12:35:45;3.70;99.90
12335;DHT22;6233;51.560;9.986;2022-12-07T12:41:55;3.60;99.90
12335;DHT22;6233;51.560;9.986;2022-12-07T12:45:18;3.70;99.90
12335;DHT22;6233;51.560;9.986;2022-12-07T12:48:29;3.70;99.90
12335;DHT22;6233;51.560;9.986;2022-12-07T12:51:40;3.60;99.90
12335;DHT22;6233;51.560;9.986;2022-12-07T12:54:58;3.60;99.90
12335;DHT22;6233;51.560;9.986;2022-12-07T13:01:41;3.60;99.90
12335;DHT22;6233;51.560;9.986;2022-12-07T13:08:17;3.60;99.90
12335;DHT22;6233;51.560;9.986;2022-12-07T13:14:58;3.60;99.90
12335;DHT22;6233;51.560;9.986;2022-12-07T13:18:02;3.60;99.90
12335;DHT22;6233;51.560;9.986;2022-12-07T13:24:10;3.60;99.90
12335;DHT22;6233;51.560;9.986;2022-12-07T13:27:13;3.60;99.90
12335;DHT22;6233;51.560;9.986;2022-12-07T13:30:20;3.50;99.90
12335;DHT22;6233;51.560;9.986;2022-12-07T13:33:23;3.50;99.90
12335;DHT22;6233;51.560;9.986;2022-12-07T13:36:31;3.60;99.90
12335;DHT22;6233;51.560;9.986;2022-12-07T13:39:45;3.50;99.90
12335;DHT22;6233;51.560;9.986;2022-12-07T13:42:47;3.50;99.90
12335;DHT22;6233;51.560;9.986;2022-12-07T13:45:56;3.60;99.90
12335;DHT22;6233;51.560;9.986;2022-12-07T13:48:59;3.60;99.90
12335;DHT22;6233;51.560;9.986;2022-12-07T13:52:15;3.60;99.90
12335;DHT22;6233;51.560;9.986;2022-12-07T13:55:20;3.60;99.90
12335;DHT22;6233;51.560;9.986;2022-12-07T13:58:22;3.60;99.90
12335;DHT22;6233;51.560;9.986;2022-12-07T14:01:25;3.60;99.90
12335;DHT22;6233;51.560;9.986;2022-12-07T14:07:28;3.60;99.90
12335;DHT22;6233;51.560;9.986;2022-12-07T14:10:52;3.70;99.90
12335;DHT22;6233;51.560;9.986;2022-12-07T14:14:02;3.70;99.90
12335;DHT22;6233;51.560;9.986;2022-12-07T14:17:16;3.60;99.90
12335;DHT22;6233;51.560;9.986;2022-12-07T14:20:36;3.60;99.90
12335;DHT22;6233;51.560;9.986;2022-12-07T14:23:39;3.60;99.90
12335;DHT22;6233;51.560;9.986;2022-12-07T14:26:41;3.70;99.90
12335;DHT22;6233;51.560;9.986;2022-12-07T14:29:43;3.70;99.90
12335;DHT22;6233;51.560;9.986;2022-12-07T14:32:47;3.70;99.90
12335;DHT22;6233;51.560;9.986;2022-12-07T14:35:50;3.70;99.90
12335;DHT22;6233;51.560;9.986;2022-12-07T14:38:56;3.70;99.90
12335;DHT22;6233;51.560;9.986;2022-12-07T14:41:59;3.70;99.90
12335;DHT22;6233;51.560;9.986;2022-12-07T14:45:01;3.70;99.90
12335;DHT22;6233;51.560;9.986;2022-12-07T14:48:03;3.70;99.90
12335;DHT22;6233;51.560;9.986;2022-12-07T14:51:25;3.70;99.90
12335;DHT22;6233;51.560;9.986;2022-12-07T14:54:47;3.70;99.90
12335;DHT22;6233;51.560;9.986;2022-12-07T14:57:49;3.70;99.90
12335;DHT22;6233;51.560;9.986;2022-12-07T15:00:50;3.70;99.90
12335;DHT22;6233;51.560;9.986;2022-12-07T15:03:52;3.70;99.90
12335;DHT22;6233;51.560;9.986;2022-12-07T15:07:02;3.70;99.90
12335;DHT22;6233;51.560;9.986;2022-12-07T15:10:05;3.60;99.90
12335;DHT22;6233;51.560;9.986;2022-12-07T15:13:07;3.60;99.90
12335;DHT22;6233;51.560;9.986;2022-12-07T15:16:28;3.60;99.90
12335;DHT22;6233;51.560;9.986;2022-12-07T15:23:14;3.60;99.90
12335;DHT22;6233;51.560;9.986;2022-12-07T15:26:16;3.60;99.90
12335;DHT22;6233;51.560;9.986;2022-12-07T15:29:18;3.60;99.90
12335;DHT22;6233;51.560;9.986;2022-12-07T15:32:24;3.60;99.90
12335;DHT22;6233;51.560;9.986;2022-12-07T15:35:26;3.60;99.90
12335;DHT22;6233;51.560;9.986;2022-12-07T15:38:27;3.60;99.90
12335;DHT22;6233;51.560;9.986;2022-12-07T15:41:51;3.60;99.90
12335;DHT22;6233;51.560;9.986;2022-12-07T15:44:53;3.60;99.90
12335;DHT22;6233;51.560;9.986;2022-12-07T15:48:08;3.60;99.90
12335;DHT22;6233;51.560;9.986;2022-12-07T15:51:30;3.60;99.90
12335;DHT22;6233;51.560;9.986;2022-12-07T15:54:31;3.60;99.90
12335;DHT22;6233;51.560;9.986;2022-12-07T15:57:35;3.60;99.90
12335;DHT22;6233;51.560;9.986;2022-12-07T16:00:38;3.50;99.90
12335;DHT22;6233;51.560;9.986;2022-12-07T16:03:40;3.60;99.90
12335;DHT22;6233;51.560;9.986;2022-12-07T16:06:42;3.50;99.90
12335;DHT22;6233;51.560;9.986;2022-12-07T16:09:44;3.50;99.90
12335;DHT22;6233;51.560;9.986;2022-12-07T16:12:46;3.50;99.90
12335;DHT22;6233;51.560;9.986;2022-12-07T16:15:48;3.40;99.90
12335;DHT22;6233;51.560;9.986;2022-12-07T16:18:50;3.40;99.90
12335;DHT22;6233;51.560;9.986;2022-12-07T16:21:52;3.40;99.90
12335;DHT22;6233;51.560;9.986;2022-12-07T16:24:53;3.40;99.90
12335;DHT22;6233;51.560;9.986;2022-12-07T16:27:55;3.40;99.90
12335;DHT22;6233;51.560;9.986;2022-12-07T16:31:08;3.30;99.90
12335;DHT22;6233;51.560;9.986;2022-12-07T16:34:11;3.30;99.90
12335;DHT22;6233;51.560;9.986;2022-12-07T16:37:12;3.30;99.90
12335;DHT22;6233;51.560;9.986;2022-12-07T16:40:14;3.20;99.90
12335;DHT22;6233;51.560;9.986;2022-12-07T16:43:16;3.20;99.90
12335;DHT22;6233;51.560;9.986;2022-12-07T16:46:18;3.30;99.90
12335;DHT22;6233;51.560;9.986;2022-12-07T16:49:19;3.20;99.90
12335;DHT22;6233;51.560;9.986;2022-12-07T16:52:21;3.20;99.90
12335;DHT22;6233;51.560;9.986;2022-12-07T16:55:23;3.20;99.90
12335;DHT22;6233;51.560;9.986;2022-12-07T16:58:24;3.20;99.90
12335;DHT22;6233;51.560;9.986;2022-12-07T17:01:26;3.20;99.90
12335;DHT22;6233;51.560;9.986;2022-12-07T17:04:31;3.20;99.90
12335;DHT22;6233;51.560;9.986;2022-12-07T17:07:32;3.20;99.90
12335;DHT22;6233;51.560;9.986;2022-12-07T17:10:37;3.20;99.90
12335;DHT22;6233;51.560;9.986;2022-12-07T17:13:39;3.20;99.90
12335;DHT22;6233;51.560;9.986;2022-12-07T17:16:59;3.20;99.90
12335;DHT22;6233;51.560;9.986;2022-12-07T17:20:02;3.20;99.90
12335;DHT22;6233;51.560;9.986;2022-12-07T17:23:04;3.20;99.90
12335;DHT22;6233;51.560;9.986;2022-12-07T17:26:08;3.20;99.90
12335;DHT22;6233;51.560;9.986;2022-12-07T17:29:11;3.10;99.90
12335;DHT22;6233;51.560;9.986;2022-12-07T17:32:14;3.10;99.90
12335;DHT22;6233;51.560;9.986;2022-12-07T17:35:16;3.20;99.90
12335;DHT22;6233;51.560;9.986;2022-12-07T17:38:17;3.10;99.90
12335;DHT22;6233;51.560;9.986;2022-12-07T17:41:27;3.10;99.90
12335;DHT22;6233;51.560;9.986;2022-12-07T17:44:47;3.10;99.90
12335;DHT22;6233;51.560;9.986;2022-12-07T17:47:49;3.10;99.90
12335;DHT22;6233;51.560;9.986;2022-12-07T17:50:50;3.10;99.90
12335;DHT22;6233;51.560;9.986;2022-12-07T17:54:11;3.10;99.90
12335;DHT22;6233;51.560;9.986;2022-12-07T17:57:13;3.10;99.90
12335;DHT22;6233;51.560;9.986;2022-12-07T18:00:15;3.10;99.90
12335;DHT22;6233;51.560;9.986;2022-12-07T18:03:17;3.10;99.90
12335;DHT22;6233;51.560;9.986;2022-12-07T18:06:19;3.10;99.90
12335;DHT22;6233;51.560;9.986;2022-12-07T18:09:20;3.10;99.90
12335;DHT22;6233;51.560;9.986;2022-12-07T18:12:23;3.10;99.90
12335;DHT22;6233;51.560;9.986;2022-12-07T18:15:24;3.20;99.90
12335;DHT22;6233;51.560;9.986;2022-12-07T18:18:26;3.20;99.90
12335;DHT22;6233;51.560;9.986;2022-12-07T18:21:29;3.20;99.90
12335;DHT22;6233;51.560;9.986;2022-12-07T18:24:31;3.20;99.90
12335;DHT22;6233;51.560;9.986;2022-12-07T18:27:37;3.20;99.90
12335;DHT22;6233;51.560;9.986;2022-12-07T18:30:39;3.20;99.90
12335;DHT22;6233;51.560;9.986;2022-12-07T18:34:07;3.20;99.90
12335;DHT22;6233;51.560;9.986;2022-12-07T18:37:12;3.20;99.90
12335;DHT22;6233;51.560;9.986;2022-12-07T18:40:14;3.20;99.90
12335;DHT22;6233;51.560;9.986;2022-12-07T18:43:47;3.20;99.90
12335;DHT22;6233;51.560;9.986;2022-12-07T18:46:49;3.20;99.90
12335;DHT22;6233;51.560;9.986;2022-12-07T18:49:51;3.20;99.90
12335;DHT22;6233;51.560;9.986;2022-12-07T18:52:55;3.20;99.90
12335;DHT22;6233;51.560;9.986;2022-12-07T18:56:15;3.20;99.90
12335;DHT22;6233;51.560;9.986;2022-12-07T18:59:40;3.20;99.90
12335;DHT22;6233;51.560;9.986;2022-12-07T19:02:52;3.20;99.90
12335;DHT22;6233;51.560;9.986;2022-12-07T19:05:54;3.20;99.90
12335;DHT22;6233;51.560;9.986;2022-12-07T19:08:58;3.20;99.90
12335;DHT22;6233;51.560;9.986;2022-12-07T19:12:00;3.30;99.90
12335;DHT22;6233;51.560;9.986;2022-12-07T19:15:05;3.20;99.90
12335;DHT22;6233;51.560;9.986;2022-12-07T19:18:07;3.20;99.90
12335;DHT22;6233;51.560;9.986;2022-12-07T19:21:09;3.20;99.90
12335;DHT22;6233;51.560;9.986;2022-12-07T19:24:11;3.10;99.90
12335;DHT22;6233;51.560;9.986;2022-12-07T19:27:17;3.20;99.90
12335;DHT22;6233;51.560;9.986;2022-12-07T19:30:20;3.20;99.90
12335;DHT22;6233;51.560;9.986;2022-12-07T19:33:22;3.20;99.90
12335;DHT22;6233;51.560;9.986;2022-12-07T19:36:24;3.20;99.90
12335;DHT22;6233;51.560;9.986;2022-12-07T19:39:25;3.20;99.90
12335;DHT22;6233;51.560;9.986;2022-12-07T19:42:27;3.20;99.90
12335;DHT22;6233;51.560;9.986;2022-12-07T19:45:35;3.10;99.90
12335;DHT22;6233;51.560;9.986;2022-12-07T19:48:37;3.10;99.90
12335;DHT22;6233;51.560;9.986;2022-12-07T19:51:39;3.10;99.90
12335;DHT22;6233;51.560;9.986;2022-12-07T19:54:40;3.00;99.90
12335;DHT22;6233;51.560;9.986;2022-12-07T19:57:42;3.00;99.90
12335;DHT22;6233;51.560;9.986;2022-12-07T20:00:44;2.90;99.90
12335;DHT22;6233;51.560;9.986;2022-12-07T20:03:45;2.90;99.90
12335;DHT22;6233;51.560;9.986;2022-12-07T20:06:49;2.90;99.90
12335;DHT22;6233;51.560;9.986;2022-12-07T20:09:51;2.90;99.90
12335;DHT22;6233;51.560;9.986;2022-12-07T20:12:53;2.90;99.90
12335;DHT22;6233;51.560;9.986;2022-12-07T20:16:13;2.90;99.90
12335;DHT22;6233;51.560;9.986;2022-12-07T20:19:20;2.90;99.90
12335;DHT22;6233;51.560;9.986;2022-12-07T20:22:22;2.90;99.90
12335;DHT22;6233;51.560;9.986;2022-12-07T20:25:24;2.90;99.90
12335;DHT22;6233;51.560;9.986;2022-12-07T20:28:25;2.90;99.90
12335;DHT22;6233;51.560;9.986;2022-12-07T20:31:27;2.90;99.90
12335;DHT22;6233;51.560;9.986;2022-12-07T20:34:29;2.90;99.90
12335;DHT22;6233;51.560;9.986;2022-12-07T20:37:31;2.90;99.90
12335;DHT22;6233;51.560;9.986;2022-12-07T20:40:33;2.90;99.90
12335;DHT22;6233;51.560;9.986;2022-12-07T20:43:34;2.90;99.90
12335;DHT22;6233;51.560;9.986;2022-12-07T20:46:36;2.90;99.90
12335;DHT22;6233;51.560;9.986;2022-12-07T20:49:38;2.90;99.90
12335;DHT22;6233;51.560;9.986;2022-12-07T20:52:40;2.90;99.90
12335;DHT22;6233;51.560;9.986;2022-12-07T20:55:42;2.90;99.90
12335;DHT22;6233;51.560;9.986;2022-12-07T20:58:44;2.90;99.90
12335;DHT22;6233;51.560;9.986;2022-12-07T21:01:45;2.90;99.90
12335;DHT22;6233;51.560;9.986;2022-12-07T21:04:47;2.80;99.90
12335;DHT22;6233;51.560;9.986;2022-12-07T21:07:50;2.90;99.90
12335;DHT22;6233;51.560;9.986;2022-12-07T21:10:52;2.90;99.90
12335;DHT22;6233;51.560;9.986;2022-12-07T21:13:54;2.80;99.90
12335;DHT22;6233;51.560;9.986;2022-12-07T21:16:55;2.80;99.90
12335;DHT22;6233;51.560;9.986;2022-12-07T21:19:57;2.80;99.90
12335;DHT22;6233;51.560;9.986;2022-12-07T21:23:02;2.80;99.90
12335;DHT22;6233;51.560;9.986;2022-12-07T21:26:12;2.90;99.90
12335;DHT22;6233;51.560;9.986;2022-12-07T21:29:14;2.90;99.90
12335;DHT22;6233;51.560;9.986;2022-12-07T21:32:16;2.80;99.90
12335;DHT22;6233;51.560;9.986;2022-12-07T21:35:17;2.90;99.90